sensor_id;sensor_type;location;lat;lon;timestamp;pressure;altitude;pressure_sealevel;temperature;humidity
10940;BME280;5522;42.696;23.494;2022-08-19T00:00:32;53767.38;;;-139.68;100.00
10940;BME280;5522;42.696;23.494;2022-08-19T00:02:59;53757.31;;;-139.68;100.00
10940;BME280;5522;42.696;23.494;2022-08-19T00:05:26;53731.19;;;-139.68;100.00
10940;BME280;5522;42.696;23.494;2022-08-19T00:07:53;53763.34;;;-139.68;100.00
10940;BME280;5522;42.696;23.494;2022-08-19T00:10:21;53737.22;;;-139.68;100.00
10940;BME280;5522;42.696;23.494;2022-08-19T00:12:49;53725.16;;;-139.68;100.00
10940;BME280;5522;42.696;23.494;2022-08-19T00:15:19;53763.34;;;-139.68;100.00
10940;BME280;5522;42.696;23.494;2022-08-19T00:17:47;53759.31;;;-139.68;100.00
10940;BME280;5522;42.696;23.494;2022-08-19T00:22:50;53775.41;;;-139.68;100.00
10940;BME280;5522;42.696;23.494;2022-08-19T00:25:17;53763.34;;;-139.68;100.00
10940;BME280;5522;42.696;23.494;2022-08-19T00:27:46;53735.19;;;-139.68;100.00
10940;BME280;5522;42.696;23.494;2022-08-19T00:30:13;53743.25;;;-139.68;100.00
10940;BME280;5522;42.696;23.494;2022-08-19T00:32:40;53767.38;;;-139.68;100.00
10940;BME280;5522;42.696;23.494;2022-08-19T00:35:08;53739.22;;;-139.68;100.00
10940;BME280;5522;42.696;23.494;2022-08-19T00:37:37;53747.25;;;-139.68;100.00
10940;BME280;5522;42.696;23.494;2022-08-19T00:40:09;53733.19;;;-139.68;100.00
10940;BME280;5522;42.696;23.494;2022-08-19T00:42:36;53761.34;;;-139.68;100.00
10940;BME280;5522;42.696;23.494;2022-08-19T00:45:09;53751.28;;;-139.68;100.00
10940;BME280;5522;42.696;23.494;2022-08-19T00:47:37;53767.38;;;-139.68;100.00
10940;BME280;5522;42.696;23.494;2022-08-19T00:50:05;53765.34;;;-139.68;100.00
10940;BME280;5522;42.696;23.494;2022-08-19T00:52:37;53739.22;;;-139.68;100.00
10940;BME280;5522;42.696;23.494;2022-08-19T00:55:08;53747.25;;;-139.68;100.00
10940;BME280;5522;42.696;23.494;2022-08-19T00:57:40;53741.22;;;-139.68;100.00
10940;BME280;5522;42.696;23.494;2022-08-19T01:05:35;53779.44;;;-139.68;100.00
10940;BME280;5522;42.696;23.494;2022-08-19T01:08:04;53699.03;;;-139.68;100.00
10940;BME280;5522;42.696;23.494;2022-08-19T01:10:38;53751.28;;;-139.68;100.00
10940;BME280;5522;42.696;23.494;2022-08-19T01:13:05;53735.19;;;-139.68;100.00
10940;BME280;5522;42.696;23.494;2022-08-19T01:15:35;53739.22;;;-139.68;100.00
10940;BME280;5522;42.696;23.494;2022-08-19T01:18:08;53785.47;;;-139.68;100.00
10940;BME280;5522;42.696;23.494;2022-08-19T01:20:38;53759.31;;;-139.68;100.00
10940;BME280;5522;42.696;23.494;2022-08-19T01:23:07;53725.16;;;-139.68;100.00
10940;BME280;5522;42.696;23.494;2022-08-19T01:25:39;53743.25;;;-139.68;100.00
10940;BME280;5522;42.696;23.494;2022-08-19T01:28:14;53743.25;;;-139.68;100.00
10940;BME280;5522;42.696;23.494;2022-08-19T01:30:41;53733.19;;;-139.68;100.00
10940;BME280;5522;42.696;23.494;2022-08-19T01:33:09;53779.44;;;-139.68;100.00
10940;BME280;5522;42.696;23.494;2022-08-19T01:35:36;53743.25;;;-139.68;100.00
10940;BME280;5522;42.696;23.494;2022-08-19T01:38:08;53743.25;;;-139.68;100.00
10940;BME280;5522;42.696;23.494;2022-08-19T01:40:38;53735.19;;;-139.68;100.00
10940;BME280;5522;42.696;23.494;2022-08-19T01:43:07;53739.22;;;-139.68;100.00
10940;BME280;5522;42.696;23.494;2022-08-19T01:45:35;53751.28;;;-139.68;100.00
10940;BME280;5522;42.696;23.494;2022-08-19T01:48:03;53747.25;;;-139.68;100.00
10940;BME280;5522;42.696;23.494;2022-08-19T01:50:31;53761.34;;;-139.68;100.00
10940;BME280;5522;42.696;23.494;2022-08-19T01:53:00;53755.31;;;-139.68;100.00
10940;BME280;5522;42.696;23.494;2022-08-19T01:55:28;53741.22;;;-139.68;100.00
10940;BME280;5522;42.696;23.494;2022-08-19T01:57:58;53749.28;;;-139.68;100.00
10940;BME280;5522;42.696;23.494;2022-08-19T02:00:28;53739.22;;;-139.68;100.00
10940;BME280;5522;42.696;23.494;2022-08-19T02:02:56;53719.13;;;-139.68;100.00
10940;BME280;5522;42.696;23.494;2022-08-19T02:05:23;53765.34;;;-139.68;100.00
10940;BME280;5522;42.696;23.494;2022-08-19T02:07:50;53759.31;;;-139.68;100.00
10940;BME280;5522;42.696;23.494;2022-08-19T02:10:20;53763.34;;;-139.68;100.00
10940;BME280;5522;42.696;23.494;2022-08-19T02:12:49;53765.34;;;-139.68;100.00
10940;BME280;5522;42.696;23.494;2022-08-19T02:15:16;53753.28;;;-139.68;100.00
10940;BME280;5522;42.696;23.494;2022-08-19T02:17:44;53751.28;;;-139.68;100.00
10940;BME280;5522;42.696;23.494;2022-08-19T02:20:12;53747.25;;;-139.68;100.00
10940;BME280;5522;42.696;23.494;2022-08-19T02:22:39;53741.22;;;-139.68;100.00
10940;BME280;5522;42.696;23.494;2022-08-19T02:25:08;53751.28;;;-139.68;100.00
10940;BME280;5522;42.696;23.494;2022-08-19T02:27:36;53745.25;;;-139.68;100.00
10940;BME280;5522;42.696;23.494;2022-08-19T02:30:06;53751.28;;;-139.68;100.00
10940;BME280;5522;42.696;23.494;2022-08-19T02:32:33;53765.34;;;-139.68;100.00
10940;BME280;5522;42.696;23.494;2022-08-19T02:35:00;53753.28;;;-139.68;100.00
10940;BME280;5522;42.696;23.494;2022-08-19T02:37:28;53779.44;;;-139.68;100.00
10940;BME280;5522;42.696;23.494;2022-08-19T02:40:13;53735.19;;;-139.68;100.00
10940;BME280;5522;42.696;23.494;2022-08-19T02:42:40;53743.25;;;-139.68;100.00
10940;BME280;5522;42.696;23.494;2022-08-19T02:45:10;53719.13;;;-139.68;100.00
10940;BME280;5522;42.696;23.494;2022-08-19T02:47:37;53761.34;;;-139.68;100.00
10940;BME280;5522;42.696;23.494;2022-08-19T02:50:05;53735.19;;;-139.68;100.00
10940;BME280;5522;42.696;23.494;2022-08-19T02:52:32;53729.16;;;-139.68;100.00
10940;BME280;5522;42.696;23.494;2022-08-19T02:55:00;53735.19;;;-139.68;100.00
10940;BME280;5522;42.696;23.494;2022-08-19T02:57:27;53779.44;;;-139.68;100.00
10940;BME280;5522;42.696;23.494;2022-08-19T02:59:56;53727.16;;;-139.68;100.00
10940;BME280;5522;42.696;23.494;2022-08-19T03:02:25;53781.44;;;-139.68;100.00
10940;BME280;5522;42.696;23.494;2022-08-19T03:04:52;53737.22;;;-139.68;100.00
10940;BME280;5522;42.696;23.494;2022-08-19T03:07:19;53735.19;;;-139.68;100.00
10940;BME280;5522;42.696;23.494;2022-08-19T03:09:46;53747.25;;;-139.68;100.00
10940;BME280;5522;42.696;23.494;2022-08-19T03:12:14;53723.13;;;-139.68;100.00
10940;BME280;5522;42.696;23.494;2022-08-19T03:14:41;53759.31;;;-139.68;100.00
10940;BME280;5522;42.696;23.494;2022-08-19T03:17:08;53739.22;;;-139.68;100.00
10940;BME280;5522;42.696;23.494;2022-08-19T03:19:36;53743.25;;;-139.68;100.00
10940;BME280;5522;42.696;23.494;2022-08-19T03:22:03;53759.31;;;-139.68;100.00
10940;BME280;5522;42.696;23.494;2022-08-19T03:24:31;53775.41;;;-139.68;100.00
10940;BME280;5522;42.696;23.494;2022-08-19T03:26:58;53715.09;;;-139.68;100.00
10940;BME280;5522;42.696;23.494;2022-08-19T03:29:27;53759.31;;;-139.68;100.00
10940;BME280;5522;42.696;23.494;2022-08-19T03:31:54;53765.34;;;-139.68;100.00
10940;BME280;5522;42.696;23.494;2022-08-19T03:34:24;53723.13;;;-139.68;100.00
10940;BME280;5522;42.696;23.494;2022-08-19T03:36:53;53725.16;;;-139.68;100.00
10940;BME280;5522;42.696;23.494;2022-08-19T03:39:21;53755.31;;;-139.68;100.00
10940;BME280;5522;42.696;23.494;2022-08-19T03:41:49;53739.22;;;-139.68;100.00
10940;BME280;5522;42.696;23.494;2022-08-19T03:44:19;53727.16;;;-139.68;100.00
10940;BME280;5522;42.696;23.494;2022-08-19T03:46:48;53731.19;;;-139.68;100.00
10940;BME280;5522;42.696;23.494;2022-08-19T03:49:16;53723.13;;;-139.68;100.00
10940;BME280;5522;42.696;23.494;2022-08-19T03:51:45;53775.41;;;-139.68;100.00
10940;BME280;5522;42.696;23.494;2022-08-19T03:54:15;53751.28;;;-139.68;100.00
10940;BME280;5522;42.696;23.494;2022-08-19T03:56:44;53761.34;;;-139.68;100.00
10940;BME280;5522;42.696;23.494;2022-08-19T03:59:14;53749.28;;;-139.68;100.00
10940;BME280;5522;42.696;23.494;2022-08-19T04:01:41;53759.31;;;-139.68;100.00
10940;BME280;5522;42.696;23.494;2022-08-19T04:04:08;53743.25;;;-139.68;100.00
10940;BME280;5522;42.696;23.494;2022-08-19T04:06:37;53755.31;;;-139.68;100.00
10940;BME280;5522;42.696;23.494;2022-08-19T04:09:07;53779.44;;;-139.68;100.00
10940;BME280;5522;42.696;23.494;2022-08-19T04:11:37;53749.28;;;-139.68;100.00
10940;BME280;5522;42.696;23.494;2022-08-19T04:14:07;53783.44;;;-139.68;100.00
10940;BME280;5522;42.696;23.494;2022-08-19T04:16:35;53799.53;;;-139.68;100.00
10940;BME280;5522;42.696;23.494;2022-08-19T04:19:03;53759.31;;;-139.68;100.00
10940;BME280;5522;42.696;23.494;2022-08-19T04:21:31;53763.34;;;-139.68;100.00
10940;BME280;5522;42.696;23.494;2022-08-19T04:23:58;53783.44;;;-139.68;100.00
10940;BME280;5522;42.696;23.494;2022-08-19T04:26:27;53787.47;;;-139.68;100.00
10940;BME280;5522;42.696;23.494;2022-08-19T04:28:59;53775.41;;;-139.68;100.00
10940;BME280;5522;42.696;23.494;2022-08-19T04:31:29;53749.28;;;-139.68;100.00
10940;BME280;5522;42.696;23.494;2022-08-19T04:33:58;53775.41;;;-139.68;92.16
10940;BME280;5522;42.696;23.494;2022-08-19T04:36:28;53763.34;;;-139.68;87.38
10940;BME280;5522;42.696;23.494;2022-08-19T04:38:57;53799.53;;;-139.68;81.91
10940;BME280;5522;42.696;23.494;2022-08-19T04:41:25;53773.41;;;-139.68;76.57
10940;BME280;5522;42.696;23.494;2022-08-19T04:44:12;53761.34;;;-139.68;74.80
10940;BME280;5522;42.696;23.494;2022-08-19T04:46:39;53771.38;;;-139.68;72.20
10940;BME280;5522;42.696;23.494;2022-08-19T04:49:07;53747.25;;;-139.68;69.33
10940;BME280;5522;42.696;23.494;2022-08-19T04:51:35;53815.63;;;-139.68;64.89
10940;BME280;5522;42.696;23.494;2022-08-19T04:54:03;53795.50;;;-139.68;62.49
10940;BME280;5522;42.696;23.494;2022-08-19T04:56:30;53811.59;;;-139.68;61.35
10940;BME280;5522;42.696;23.494;2022-08-19T04:58:57;53819.63;;;-139.68;60.89
10940;BME280;5522;42.696;23.494;2022-08-19T05:01:31;53807.56;;;-139.68;59.35
10940;BME280;5522;42.696;23.494;2022-08-19T05:03:59;53787.47;;;-139.68;57.81
10940;BME280;5522;42.696;23.494;2022-08-19T05:06:27;53783.44;;;-139.68;54.75
10940;BME280;5522;42.696;23.494;2022-08-19T05:08:59;53841.75;;;-139.68;51.09
10940;BME280;5522;42.696;23.494;2022-08-19T05:11:28;53797.53;;;-139.68;48.08
10940;BME280;5522;42.696;23.494;2022-08-19T05:13:56;53793.50;;;-139.68;45.30
10940;BME280;5522;42.696;23.494;2022-08-19T05:16:25;53791.50;;;-139.68;45.73
10940;BME280;5522;42.696;23.494;2022-08-19T05:18:54;53803.56;;;-139.68;44.88
10940;BME280;5522;42.696;23.494;2022-08-19T05:21:39;53843.75;;;-139.68;45.27
10940;BME280;5522;42.696;23.494;2022-08-19T05:24:25;53773.41;;;-139.68;44.58
10940;BME280;5522;42.696;23.494;2022-08-19T05:26:53;53785.47;;;-139.68;43.66
10940;BME280;5522;42.696;23.494;2022-08-19T05:29:24;53791.50;;;-139.68;43.88
10940;BME280;5522;42.696;23.494;2022-08-19T05:31:52;53777.41;;;-139.68;40.54
10940;BME280;5522;42.696;23.494;2022-08-19T05:34:21;53807.56;;;-139.68;39.47
10940;BME280;5522;42.696;23.494;2022-08-19T05:36:51;53803.56;;;-139.68;37.52
10940;BME280;5522;42.696;23.494;2022-08-19T05:39:24;53823.66;;;-139.68;38.59
10940;BME280;5522;42.696;23.494;2022-08-19T05:41:54;53835.72;;;-139.68;37.26
10940;BME280;5522;42.696;23.494;2022-08-19T05:44:23;53821.66;;;-139.68;39.51
10940;BME280;5522;42.696;23.494;2022-08-19T05:46:50;53787.47;;;-139.68;39.61
10940;BME280;5522;42.696;23.494;2022-08-19T05:49:21;53763.34;;;-139.68;38.69
10940;BME280;5522;42.696;23.494;2022-08-19T05:51:49;53803.56;;;-139.68;37.80
10940;BME280;5522;42.696;23.494;2022-08-19T05:54:16;53825.66;;;-139.68;36.52
10940;BME280;5522;42.696;23.494;2022-08-19T05:56:43;53823.66;;;-139.68;34.94
10940;BME280;5522;42.696;23.494;2022-08-19T05:59:14;53813.59;;;-139.68;36.51
10940;BME280;5522;42.696;23.494;2022-08-19T06:01:43;53829.69;;;-139.68;35.81
10940;BME280;5522;42.696;23.494;2022-08-19T06:04:12;53837.72;;;-139.68;38.61
10940;BME280;5522;42.696;23.494;2022-08-19T06:06:41;53801.53;;;-139.68;36.93
10940;BME280;5522;42.696;23.494;2022-08-19T06:09:08;53791.50;;;-139.68;35.61
10940;BME280;5522;42.696;23.494;2022-08-19T06:11:38;53801.53;;;-139.68;37.08
10940;BME280;5522;42.696;23.494;2022-08-19T06:14:07;53795.50;;;-139.68;37.70
10940;BME280;5522;42.696;23.494;2022-08-19T06:16:35;53811.59;;;-139.68;35.78
10940;BME280;5522;42.696;23.494;2022-08-19T06:19:05;53815.63;;;-139.68;35.59
10940;BME280;5522;42.696;23.494;2022-08-19T06:21:34;53805.56;;;-139.68;33.71
10940;BME280;5522;42.696;23.494;2022-08-19T06:24:04;53779.44;;;-139.68;32.69
10940;BME280;5522;42.696;23.494;2022-08-19T06:26:33;53795.50;;;-139.68;33.28
10940;BME280;5522;42.696;23.494;2022-08-19T06:29:01;53797.53;;;-139.68;33.29
10940;BME280;5522;42.696;23.494;2022-08-19T06:31:29;53807.56;;;-139.68;34.32
10940;BME280;5522;42.696;23.494;2022-08-19T06:33:59;53783.44;;;-139.68;32.49
10940;BME280;5522;42.696;23.494;2022-08-19T06:36:31;53781.44;;;-139.68;32.60
10940;BME280;5522;42.696;23.494;2022-08-19T06:39:00;53809.59;;;-139.68;32.99
10940;BME280;5522;42.696;23.494;2022-08-19T06:41:29;53835.72;;;-139.68;32.83
10940;BME280;5522;42.696;23.494;2022-08-19T06:43:57;53799.53;;;-139.68;31.97
10940;BME280;5522;42.696;23.494;2022-08-19T06:46:24;53807.56;;;-139.68;31.77
10940;BME280;5522;42.696;23.494;2022-08-19T06:48:52;53789.47;;;-139.68;32.22
10940;BME280;5522;42.696;23.494;2022-08-19T06:51:20;53803.56;;;-139.68;30.64
10940;BME280;5522;42.696;23.494;2022-08-19T06:53:53;53843.75;;;-139.68;29.98
10940;BME280;5522;42.696;23.494;2022-08-19T06:56:23;53811.59;;;-139.68;31.63
10940;BME280;5522;42.696;23.494;2022-08-19T06:58:57;53791.50;;;-139.68;31.33
10940;BME280;5522;42.696;23.494;2022-08-19T07:01:24;53785.47;;;-139.68;32.76
10940;BME280;5522;42.696;23.494;2022-08-19T07:03:51;53813.59;;;-139.68;33.29
10940;BME280;5522;42.696;23.494;2022-08-19T07:06:19;53767.38;;;-139.68;32.01
10940;BME280;5522;42.696;23.494;2022-08-19T07:08:47;53779.44;;;-139.68;31.90
10940;BME280;5522;42.696;23.494;2022-08-19T07:11:17;53785.47;;;-139.68;31.83
10940;BME280;5522;42.696;23.494;2022-08-19T07:13:45;53775.41;;;-139.68;30.99
10940;BME280;5522;42.696;23.494;2022-08-19T07:16:18;53799.53;;;-139.68;30.10
10940;BME280;5522;42.696;23.494;2022-08-19T07:18:46;53793.50;;;-139.68;29.26
10940;BME280;5522;42.696;23.494;2022-08-19T07:21:15;53831.69;;;-139.68;29.97
10940;BME280;5522;42.696;23.494;2022-08-19T07:23:43;53813.59;;;-139.68;29.36
10940;BME280;5522;42.696;23.494;2022-08-19T07:26:14;53809.59;;;-139.68;27.81
10940;BME280;5522;42.696;23.494;2022-08-19T07:28:41;53797.53;;;-139.68;27.31
10940;BME280;5522;42.696;23.494;2022-08-19T07:31:10;53779.44;;;-139.68;28.27
10940;BME280;5522;42.696;23.494;2022-08-19T07:33:40;53803.56;;;-139.68;28.26
10940;BME280;5522;42.696;23.494;2022-08-19T07:36:11;53815.63;;;-139.68;28.32
10940;BME280;5522;42.696;23.494;2022-08-19T07:38:41;53775.41;;;-139.68;26.90
10940;BME280;5522;42.696;23.494;2022-08-19T07:41:09;53779.44;;;-139.68;28.78
10940;BME280;5522;42.696;23.494;2022-08-19T07:43:37;53811.59;;;-139.68;27.52
10940;BME280;5522;42.696;23.494;2022-08-19T07:46:05;53777.41;;;-139.68;27.35
10940;BME280;5522;42.696;23.494;2022-08-19T07:48:32;53803.56;;;-139.68;26.93
10940;BME280;5522;42.696;23.494;2022-08-19T07:51:05;53795.50;;;-139.68;27.00
10940;BME280;5522;42.696;23.494;2022-08-19T07:53:32;53797.53;;;-139.68;28.55
10940;BME280;5522;42.696;23.494;2022-08-19T07:56:00;53777.41;;;-139.68;26.46
10940;BME280;5522;42.696;23.494;2022-08-19T07:58:30;53807.56;;;-139.68;26.84
10940;BME280;5522;42.696;23.494;2022-08-19T08:00:59;53783.44;;;-139.68;27.42
10940;BME280;5522;42.696;23.494;2022-08-19T08:03:27;53767.38;;;-139.68;27.15
10940;BME280;5522;42.696;23.494;2022-08-19T08:06:10;53787.47;;;-139.68;27.10
10940;BME280;5522;42.696;23.494;2022-08-19T08:08:54;53751.28;;;-139.68;28.09
10940;BME280;5522;42.696;23.494;2022-08-19T08:11:46;53803.56;;;-139.68;26.74
10940;BME280;5522;42.696;23.494;2022-08-19T08:14:15;53793.50;;;-139.68;26.63
10940;BME280;5522;42.696;23.494;2022-08-19T08:16:42;53799.53;;;-139.68;26.18
10940;BME280;5522;42.696;23.494;2022-08-19T08:19:11;53787.47;;;-139.68;26.24
10940;BME280;5522;42.696;23.494;2022-08-19T08:21:41;53787.47;;;-139.68;28.17
10940;BME280;5522;42.696;23.494;2022-08-19T08:24:10;53791.50;;;-139.68;28.03
10940;BME280;5522;42.696;23.494;2022-08-19T08:26:37;53783.44;;;-139.68;26.86
10940;BME280;5522;42.696;23.494;2022-08-19T08:29:05;53743.25;;;-139.68;25.68
10940;BME280;5522;42.696;23.494;2022-08-19T08:31:33;53745.25;;;-139.68;26.28
10940;BME280;5522;42.696;23.494;2022-08-19T08:34:00;53793.50;;;-139.68;26.73
10940;BME280;5522;42.696;23.494;2022-08-19T08:36:27;53745.25;;;-139.68;25.98
10940;BME280;5522;42.696;23.494;2022-08-19T08:38:55;53751.28;;;-139.68;24.99
10940;BME280;5522;42.696;23.494;2022-08-19T08:41:28;53743.25;;;-139.68;25.17
10940;BME280;5522;42.696;23.494;2022-08-19T08:43:58;53747.25;;;-139.68;24.33
10940;BME280;5522;42.696;23.494;2022-08-19T08:46:30;53745.25;;;-139.68;24.69
10940;BME280;5522;42.696;23.494;2022-08-19T08:49:05;53779.44;;;-139.68;24.39
10940;BME280;5522;42.696;23.494;2022-08-19T08:51:37;53719.13;;;-139.68;26.21
10940;BME280;5522;42.696;23.494;2022-08-19T08:54:10;53723.13;;;-139.68;24.21
10940;BME280;5522;42.696;23.494;2022-08-19T08:56:38;53707.06;;;-139.68;23.89
10940;BME280;5522;42.696;23.494;2022-08-19T08:59:07;53727.16;;;-139.68;22.94
10940;BME280;5522;42.696;23.494;2022-08-19T09:01:37;53739.22;;;-139.68;24.09
10940;BME280;5522;42.696;23.494;2022-08-19T09:04:05;53737.22;;;-139.68;23.22
10940;BME280;5522;42.696;23.494;2022-08-19T09:06:38;53743.25;;;-139.68;22.84
10940;BME280;5522;42.696;23.494;2022-08-19T09:09:14;53743.25;;;-139.68;22.62
10940;BME280;5522;42.696;23.494;2022-08-19T09:11:57;53739.22;;;-139.68;24.13
10940;BME280;5522;42.696;23.494;2022-08-19T09:14:36;53743.25;;;-139.68;22.76
10940;BME280;5522;42.696;23.494;2022-08-19T09:17:07;53729.16;;;-139.68;22.13
10940;BME280;5522;42.696;23.494;2022-08-19T09:19:36;53715.09;;;-139.68;23.49
10940;BME280;5522;42.696;23.494;2022-08-19T09:22:13;53723.13;;;-139.68;23.08
10940;BME280;5522;42.696;23.494;2022-08-19T09:24:42;53725.16;;;-139.68;22.06
10940;BME280;5522;42.696;23.494;2022-08-19T09:27:09;53725.16;;;-139.68;22.86
10940;BME280;5522;42.696;23.494;2022-08-19T09:29:36;53717.13;;;-139.68;21.18
10940;BME280;5522;42.696;23.494;2022-08-19T09:32:04;53723.13;;;-139.68;20.57
10940;BME280;5522;42.696;23.494;2022-08-19T09:34:31;53703.03;;;-139.68;21.39
10940;BME280;5522;42.696;23.494;2022-08-19T09:36:59;53727.16;;;-139.68;21.13
10940;BME280;5522;42.696;23.494;2022-08-19T09:39:26;53731.19;;;-139.68;20.80
10940;BME280;5522;42.696;23.494;2022-08-19T09:41:55;53719.13;;;-139.68;20.65
10940;BME280;5522;42.696;23.494;2022-08-19T09:44:22;53731.19;;;-139.68;21.29
10940;BME280;5522;42.696;23.494;2022-08-19T09:46:49;53727.16;;;-139.68;21.11
10940;BME280;5522;42.696;23.494;2022-08-19T09:49:17;53707.06;;;-139.68;20.95
10940;BME280;5522;42.696;23.494;2022-08-19T09:51:45;53684.94;;;-139.68;21.58
10940;BME280;5522;42.696;23.494;2022-08-19T09:54:14;53711.09;;;-139.68;21.23
10940;BME280;5522;42.696;23.494;2022-08-19T09:56:41;53729.16;;;-139.68;21.56
10940;BME280;5522;42.696;23.494;2022-08-19T09:59:10;53731.19;;;-139.68;21.25
10940;BME280;5522;42.696;23.494;2022-08-19T10:01:38;53684.94;;;-139.68;20.39
10940;BME280;5522;42.696;23.494;2022-08-19T10:04:05;53739.22;;;-139.68;20.57
10940;BME280;5522;42.696;23.494;2022-08-19T10:06:36;53719.13;;;-139.68;20.23
10940;BME280;5522;42.696;23.494;2022-08-19T10:09:03;53739.22;;;-139.68;20.44
10940;BME280;5522;42.696;23.494;2022-08-19T10:11:32;53731.19;;;-139.68;19.88
10940;BME280;5522;42.696;23.494;2022-08-19T10:14:00;53727.16;;;-139.68;20.52
10940;BME280;5522;42.696;23.494;2022-08-19T10:16:28;53725.16;;;-139.68;20.95
10940;BME280;5522;42.696;23.494;2022-08-19T10:18:55;53765.34;;;-139.68;22.21
10940;BME280;5522;42.696;23.494;2022-08-19T10:21:24;53823.66;;;-139.68;23.33
10940;BME280;5522;42.696;23.494;2022-08-19T10:23:54;53755.31;;;-139.68;24.73
10940;BME280;5522;42.696;23.494;2022-08-19T10:26:24;53803.56;;;-139.68;24.58
10940;BME280;5522;42.696;23.494;2022-08-19T10:28:52;53827.69;;;-139.68;24.95
10940;BME280;5522;42.696;23.494;2022-08-19T10:31:22;53821.66;;;-139.68;24.40
10940;BME280;5522;42.696;23.494;2022-08-19T10:33:52;53835.72;;;-139.68;25.77
10940;BME280;5522;42.696;23.494;2022-08-19T10:36:26;53823.66;;;-139.68;27.52
10940;BME280;5522;42.696;23.494;2022-08-19T10:38:55;53807.56;;;-139.68;26.63
10940;BME280;5522;42.696;23.494;2022-08-19T10:41:26;53801.53;;;-139.68;26.87
10940;BME280;5522;42.696;23.494;2022-08-19T10:43:54;53837.72;;;-139.68;28.25
10940;BME280;5522;42.696;23.494;2022-08-19T10:46:23;53829.69;;;-139.68;27.72
10940;BME280;5522;42.696;23.494;2022-08-19T10:49:07;53803.56;;;-139.68;26.88
10940;BME280;5522;42.696;23.494;2022-08-19T10:51:38;53843.75;;;-139.68;27.34
10940;BME280;5522;42.696;23.494;2022-08-19T10:54:35;53801.53;;;-139.68;27.23
10940;BME280;5522;42.696;23.494;2022-08-19T10:57:19;53799.53;;;-139.68;26.07
10940;BME280;5522;42.696;23.494;2022-08-19T10:59:49;53839.75;;;-139.68;27.71
10940;BME280;5522;42.696;23.494;2022-08-19T11:02:17;53815.63;;;-139.68;25.40
10940;BME280;5522;42.696;23.494;2022-08-19T11:04:45;53823.66;;;-139.68;27.88
10940;BME280;5522;42.696;23.494;2022-08-19T11:07:13;53811.59;;;-139.68;27.63
10940;BME280;5522;42.696;23.494;2022-08-19T11:09:41;53791.50;;;-139.68;28.57
10940;BME280;5522;42.696;23.494;2022-08-19T11:12:08;53855.81;;;-139.68;25.97
10940;BME280;5522;42.696;23.494;2022-08-19T11:14:36;53821.66;;;-139.68;26.71
10940;BME280;5522;42.696;23.494;2022-08-19T11:17:03;53843.75;;;-139.68;28.45
10940;BME280;5522;42.696;23.494;2022-08-19T11:19:31;53795.50;;;-139.68;26.84
10940;BME280;5522;42.696;23.494;2022-08-19T11:22:00;53831.69;;;-139.68;28.52
10940;BME280;5522;42.696;23.494;2022-08-19T11:24:28;53847.78;;;-139.68;26.17
10940;BME280;5522;42.696;23.494;2022-08-19T11:27:01;53803.56;;;-139.68;26.06
10940;BME280;5522;42.696;23.494;2022-08-19T11:29:30;53829.69;;;-139.68;26.51
10940;BME280;5522;42.696;23.494;2022-08-19T11:32:02;53809.59;;;-139.68;27.84
10940;BME280;5522;42.696;23.494;2022-08-19T11:34:30;53833.72;;;-139.68;28.94
10940;BME280;5522;42.696;23.494;2022-08-19T11:36:57;53815.63;;;-139.68;29.75
10940;BME280;5522;42.696;23.494;2022-08-19T11:39:28;53783.44;;;-139.68;30.24
10940;BME280;5522;42.696;23.494;2022-08-19T11:41:57;53827.69;;;-139.68;29.17
10940;BME280;5522;42.696;23.494;2022-08-19T11:44:25;53823.66;;;-139.68;28.67
10940;BME280;5522;42.696;23.494;2022-08-19T11:46:53;53793.50;;;-139.68;29.59
10940;BME280;5522;42.696;23.494;2022-08-19T11:49:20;53821.66;;;-139.68;30.05
10940;BME280;5522;42.696;23.494;2022-08-19T11:51:48;53831.69;;;-139.68;28.95
10940;BME280;5522;42.696;23.494;2022-08-19T11:54:16;53855.81;;;-139.68;28.50
10940;BME280;5522;42.696;23.494;2022-08-19T11:56:45;53803.56;;;-139.68;26.48
10940;BME280;5522;42.696;23.494;2022-08-19T11:59:14;53827.69;;;-139.68;27.78
10940;BME280;5522;42.696;23.494;2022-08-19T12:01:41;53811.59;;;-139.68;28.69
10940;BME280;5522;42.696;23.494;2022-08-19T12:04:09;53823.66;;;-139.68;30.20
10940;BME280;5522;42.696;23.494;2022-08-19T12:06:39;53783.44;;;-139.68;29.16
10940;BME280;5522;42.696;23.494;2022-08-19T12:09:08;53803.56;;;-139.68;28.91
10940;BME280;5522;42.696;23.494;2022-08-19T12:11:36;53845.78;;;-139.68;28.41
10940;BME280;5522;42.696;23.494;2022-08-19T12:14:05;53843.75;;;-139.68;28.37
10940;BME280;5522;42.696;23.494;2022-08-19T12:16:33;53803.56;;;-139.68;28.70
10940;BME280;5522;42.696;23.494;2022-08-19T12:19:03;53837.72;;;-139.68;28.63
10940;BME280;5522;42.696;23.494;2022-08-19T12:21:32;53821.66;;;-139.68;27.03
10940;BME280;5522;42.696;23.494;2022-08-19T12:24:01;53857.84;;;-139.68;27.57
10940;BME280;5522;42.696;23.494;2022-08-19T12:26:29;53839.75;;;-139.68;29.60
10940;BME280;5522;42.696;23.494;2022-08-19T12:28:56;53799.53;;;-139.68;28.18
10940;BME280;5522;42.696;23.494;2022-08-19T12:31:26;53819.63;;;-139.68;29.40
10940;BME280;5522;42.696;23.494;2022-08-19T12:33:53;53789.47;;;-139.68;28.42
10940;BME280;5522;42.696;23.494;2022-08-19T12:36:21;53815.63;;;-139.68;29.04
10940;BME280;5522;42.696;23.494;2022-08-19T12:38:48;53823.66;;;-139.68;30.07
10940;BME280;5522;42.696;23.494;2022-08-19T12:41:16;53859.84;;;-139.68;28.73
10940;BME280;5522;42.696;23.494;2022-08-19T12:43:44;53829.69;;;-139.68;29.04
10940;BME280;5522;42.696;23.494;2022-08-19T12:46:14;53831.69;;;-139.68;29.27
10940;BME280;5522;42.696;23.494;2022-08-19T12:48:43;53795.50;;;-139.68;29.12
10940;BME280;5522;42.696;23.494;2022-08-19T12:51:12;53809.59;;;-139.68;27.89
10940;BME280;5522;42.696;23.494;2022-08-19T12:53:40;53831.69;;;-139.68;27.88